Meath Environmental Platform

Observations for Trim Market St

Time AQI Temp °C Hum % Pres Pa CO μg/m³ H₂S μg/m³ NO μg/m³ NO₂ μg/m³ O₃ μg/m³ SO₂ μg/m³ PM1 μg/m³ PM2.5 μg/m³ PM10 μg/m³
Tuesday 14 July 2026
16:02 1 34.6 26 66,487 0 0 0 0 20.1 0 2.85 6.21 6.83
15:57 1 34.6 27 66,453 0 0.78 0 10.4 22.15 0 3.56 7.29 10.18
15:56 1 34.6 27 66,441 0 5.13 0 26.79 0 0 3.56 7.83 9.29
15:55 1 34.6 27 66,457 0 8.28 0 8.4 36.7 0.19 2.85 6.74 7.41
15:54 1 34.6 26 66,478 0 6.21 0 9.12 41.36 0 2.85 6.2 7.52
15:53 1 34.7 26 66,474 0 0 0 6.51 32.12 0 2.85 7.3 8.41
15:52 1 34.7 26 66,465 0 0 0 0.82 20.14 0.82 4.28 7.85 8.41
15:51 1 34.7 26 66,497 0 2.39 0 4.63 29.54 0.52 3.56 6.76 7.44
15:50 1 34.7 26 66,497 0 2.23 0 5.33 35.25 0.63 2.14 6.21 6.84
15:49 1 34.8 26 66,501 0 0.49 0 5.93 31.72 0.14 2.85 6.77 7.45
15:48 1 34.8 26 66,503 0 0 0 0 36.45 1.16 2.14 6.23 6.85
15:47 1 34.9 26 66,537 0 0 0 1.02 26.85 0.74 2.14 6.23 6.63
15:46 1 35 26 66,521 0 0 0 1 31.8 0.6 2.14 5.14 5.65
15:45 1 35 26 66,529 0 0 0 1.8 27.42 0.51 0.71 4.59 5.05
15:44 1 35.1 26 66,541 0 0 0 3.26 24.36 0.08 3.56 7.33 7.52
15:38 1 35.3 26 66,527 0 0 0 0.13 37.36 1.53 2.85 7.34 7.52
15:32 1 35.7 25 66,529 0 0.64 0 4.65 33.95 1.07 2.85 7.35 8.42
15:31 1 35.7 25 66,550 0 0 0 1.88 35.78 0.95 2.14 5.72 6.63
15:29 1 35.8 25 66,564 0 0 0 0.34 30.73 0.62 3.56 7.36 7.52
15:27 1 35.9 25 66,578 0 0 0 1.32 34.9 0.86 2.85 6.81 9.31